sensor_id;sensor_type;location;lat;lon;timestamp;temperature;humidity
32728;DHT22;55292;51.844;19.246;2024-02-26T00:04:21;3.90;99.90
32728;DHT22;55292;51.844;19.246;2024-02-26T00:09:24;5.70;99.90
32728;DHT22;55292;51.844;19.246;2024-02-26T00:14:27;3.90;99.90
32728;DHT22;55292;51.844;19.246;2024-02-26T00:19:30;4.10;99.90
32728;DHT22;55292;51.844;19.246;2024-02-26T00:24:33;4.20;99.90
32728;DHT22;55292;51.844;19.246;2024-02-26T00:29:35;4.40;99.90
32728;DHT22;55292;51.844;19.246;2024-02-26T00:34:38;4.40;99.90
32728;DHT22;55292;51.844;19.246;2024-02-26T00:39:41;4.50;99.90
32728;DHT22;55292;51.844;19.246;2024-02-26T00:44:44;4.70;99.90
32728;DHT22;55292;51.844;19.246;2024-02-26T00:49:46;4.70;99.90
32728;DHT22;55292;51.844;19.246;2024-02-26T00:54:49;4.70;99.90
32728;DHT22;55292;51.844;19.246;2024-02-26T00:59:52;4.70;99.90
32728;DHT22;55292;51.844;19.246;2024-02-26T01:04:55;4.80;99.90
32728;DHT22;55292;51.844;19.246;2024-02-26T01:09:57;5.00;99.90
32728;DHT22;55292;51.844;19.246;2024-02-26T01:15:01;5.10;99.90
32728;DHT22;55292;51.844;19.246;2024-02-26T01:20:07;5.20;99.90
32728;DHT22;55292;51.844;19.246;2024-02-26T01:25:12;5.20;99.90
32728;DHT22;55292;51.844;19.246;2024-02-26T01:30:15;5.00;99.90
32728;DHT22;55292;51.844;19.246;2024-02-26T01:35:19;4.70;99.90
32728;DHT22;55292;51.844;19.246;2024-02-26T01:40:22;4.60;99.90
32728;DHT22;55292;51.844;19.246;2024-02-26T01:45:25;4.60;99.90
32728;DHT22;55292;51.844;19.246;2024-02-26T01:50:28;4.20;99.90
32728;DHT22;55292;51.844;19.246;2024-02-26T01:55:31;4.20;99.90
32728;DHT22;55292;51.844;19.246;2024-02-26T02:00:34;4.30;99.90
32728;DHT22;55292;51.844;19.246;2024-02-26T02:05:37;4.40;99.90
32728;DHT22;55292;51.844;19.246;2024-02-26T02:10:45;4.30;99.90
32728;DHT22;55292;51.844;19.246;2024-02-26T02:15:50;7.50;99.90
32728;DHT22;55292;51.844;19.246;2024-02-26T02:20:53;4.10;99.90
32728;DHT22;55292;51.844;19.246;2024-02-26T02:25:57;3.90;99.90
32728;DHT22;55292;51.844;19.246;2024-02-26T02:31:00;3.60;99.90
32728;DHT22;55292;51.844;19.246;2024-02-26T02:36:04;3.60;99.90
32728;DHT22;55292;51.844;19.246;2024-02-26T02:41:06;3.60;99.90
32728;DHT22;55292;51.844;19.246;2024-02-26T02:46:09;3.60;99.90
32728;DHT22;55292;51.844;19.246;2024-02-26T02:51:14;3.30;99.90
32728;DHT22;55292;51.844;19.246;2024-02-26T02:56:16;3.10;99.90
32728;DHT22;55292;51.844;19.246;2024-02-26T03:01:19;3.10;99.90
32728;DHT22;55292;51.844;19.246;2024-02-26T03:06:22;3.10;99.90
32728;DHT22;55292;51.844;19.246;2024-02-26T03:12:01;3.10;99.90
32728;DHT22;55292;51.844;19.246;2024-02-26T03:22:07;3.30;99.90
32728;DHT22;55292;51.844;19.246;2024-02-26T03:32:13;3.20;99.90
32728;DHT22;55292;51.844;19.246;2024-02-26T03:37:16;3.60;99.90
32728;DHT22;55292;51.844;19.246;2024-02-26T03:42:19;3.70;99.90
32728;DHT22;55292;51.844;19.246;2024-02-26T03:47:22;3.80;99.90
32728;DHT22;55292;51.844;19.246;2024-02-26T03:52:24;3.80;99.90
32728;DHT22;55292;51.844;19.246;2024-02-26T04:02:30;4.20;99.90
32728;DHT22;55292;51.844;19.246;2024-02-26T04:07:33;4.20;99.90
32728;DHT22;55292;51.844;19.246;2024-02-26T04:12:40;4.20;99.90
32728;DHT22;55292;51.844;19.246;2024-02-26T04:17:43;4.40;99.90
32728;DHT22;55292;51.844;19.246;2024-02-26T04:22:47;4.40;99.90
32728;DHT22;55292;51.844;19.246;2024-02-26T04:27:50;4.40;99.90
32728;DHT22;55292;51.844;19.246;2024-02-26T04:32:53;4.40;99.90
32728;DHT22;55292;51.844;19.246;2024-02-26T04:37:55;4.30;99.90
32728;DHT22;55292;51.844;19.246;2024-02-26T04:42:58;5.80;99.90
32728;DHT22;55292;51.844;19.246;2024-02-26T04:48:02;3.90;99.90
32728;DHT22;55292;51.844;19.246;2024-02-26T04:53:05;3.90;99.90
32728;DHT22;55292;51.844;19.246;2024-02-26T04:58:08;3.90;99.90
32728;DHT22;55292;51.844;19.246;2024-02-26T05:03:11;3.70;99.90
32728;DHT22;55292;51.844;19.246;2024-02-26T05:08:18;3.80;99.90
32728;DHT22;55292;51.844;19.246;2024-02-26T05:13:21;3.80;99.90
32728;DHT22;55292;51.844;19.246;2024-02-26T05:18:23;3.70;99.90
32728;DHT22;55292;51.844;19.246;2024-02-26T05:23:26;3.50;99.90
32728;DHT22;55292;51.844;19.246;2024-02-26T05:28:29;3.50;99.90
32728;DHT22;55292;51.844;19.246;2024-02-26T05:33:32;7.80;99.90
32728;DHT22;55292;51.844;19.246;2024-02-26T05:38:34;3.90;99.90
32728;DHT22;55292;51.844;19.246;2024-02-26T05:43:38;3.90;99.90
32728;DHT22;55292;51.844;19.246;2024-02-26T05:48:40;4.00;99.90
32728;DHT22;55292;51.844;19.246;2024-02-26T05:53:44;4.00;99.90
32728;DHT22;55292;51.844;19.246;2024-02-26T05:58:47;7.20;99.90
32728;DHT22;55292;51.844;19.246;2024-02-26T06:03:50;4.80;99.90
32728;DHT22;55292;51.844;19.246;2024-02-26T06:08:53;4.80;99.90
32728;DHT22;55292;51.844;19.246;2024-02-26T06:13:56;5.20;99.90
32728;DHT22;55292;51.844;19.246;2024-02-26T06:18:59;5.50;99.90
32728;DHT22;55292;51.844;19.246;2024-02-26T06:24:05;5.80;99.90
32728;DHT22;55292;51.844;19.246;2024-02-26T06:29:08;6.10;99.90
32728;DHT22;55292;51.844;19.246;2024-02-26T06:34:11;6.30;99.90
32728;DHT22;55292;51.844;19.246;2024-02-26T06:39:14;9.70;99.90
32728;DHT22;55292;51.844;19.246;2024-02-26T06:44:18;7.10;99.90
32728;DHT22;55292;51.844;19.246;2024-02-26T06:49:21;7.50;99.90
32728;DHT22;55292;51.844;19.246;2024-02-26T06:54:24;7.60;99.90
32728;DHT22;55292;51.844;19.246;2024-02-26T06:59:26;7.00;99.90
32728;DHT22;55292;51.844;19.246;2024-02-26T07:04:29;7.00;99.90
32728;DHT22;55292;51.844;19.246;2024-02-26T07:09:34;6.80;99.90
32728;DHT22;55292;51.844;19.246;2024-02-26T07:14:37;6.80;99.90
32728;DHT22;55292;51.844;19.246;2024-02-26T07:19:40;9.80;99.90
32728;DHT22;55292;51.844;19.246;2024-02-26T07:24:43;7.00;99.90
32728;DHT22;55292;51.844;19.246;2024-02-26T07:29:45;8.60;99.90
32728;DHT22;55292;51.844;19.246;2024-02-26T07:34:49;9.10;99.90
32728;DHT22;55292;51.844;19.246;2024-02-26T07:39:52;7.50;99.90
32728;DHT22;55292;51.844;19.246;2024-02-26T07:44:56;7.70;99.90
32728;DHT22;55292;51.844;19.246;2024-02-26T07:49:59;7.90;99.90
32728;DHT22;55292;51.844;19.246;2024-02-26T07:55:02;8.20;99.90
32728;DHT22;55292;51.844;19.246;2024-02-26T08:00:09;8.40;99.90
32728;DHT22;55292;51.844;19.246;2024-02-26T08:05:12;8.60;99.90
32728;DHT22;55292;51.844;19.246;2024-02-26T08:10:15;8.80;99.90
32728;DHT22;55292;51.844;19.246;2024-02-26T08:15:18;9.00;99.90
32728;DHT22;55292;51.844;19.246;2024-02-26T08:20:21;9.10;99.90
32728;DHT22;55292;51.844;19.246;2024-02-26T08:25:24;9.60;99.90
32728;DHT22;55292;51.844;19.246;2024-02-26T08:30:27;9.50;99.90
32728;DHT22;55292;51.844;19.246;2024-02-26T08:35:30;9.70;99.90
32728;DHT22;55292;51.844;19.246;2024-02-26T08:40:33;9.90;99.90
32728;DHT22;55292;51.844;19.246;2024-02-26T08:45:36;10.10;99.90
32728;DHT22;55292;51.844;19.246;2024-02-26T08:50:39;10.40;99.90
32728;DHT22;55292;51.844;19.246;2024-02-26T08:55:42;10.60;99.90
32728;DHT22;55292;51.844;19.246;2024-02-26T09:00:45;10.80;99.90
32728;DHT22;55292;51.844;19.246;2024-02-26T09:05:48;11.00;99.90
32728;DHT22;55292;51.844;19.246;2024-02-26T09:10:51;11.50;99.90
32728;DHT22;55292;51.844;19.246;2024-02-26T09:15:54;11.40;99.90
32728;DHT22;55292;51.844;19.246;2024-02-26T09:20:58;12.30;99.90
32728;DHT22;55292;51.844;19.246;2024-02-26T09:26:01;11.70;99.90
32728;DHT22;55292;51.844;19.246;2024-02-26T09:31:04;11.90;99.90
32728;DHT22;55292;51.844;19.246;2024-02-26T09:36:08;11.90;99.90
32728;DHT22;55292;51.844;19.246;2024-02-26T09:41:14;12.50;99.90
32728;DHT22;55292;51.844;19.246;2024-02-26T09:46:18;14.10;99.90
32728;DHT22;55292;51.844;19.246;2024-02-26T09:51:26;12.20;99.90
32728;DHT22;55292;51.844;19.246;2024-02-26T09:56:29;12.30;99.90
32728;DHT22;55292;51.844;19.246;2024-02-26T10:01:35;12.30;99.90
32728;DHT22;55292;51.844;19.246;2024-02-26T10:06:38;12.50;99.90
32728;DHT22;55292;51.844;19.246;2024-02-26T10:11:41;12.60;99.90
32728;DHT22;55292;51.844;19.246;2024-02-26T10:16:46;12.60;99.90
32728;DHT22;55292;51.844;19.246;2024-02-26T10:21:48;12.70;99.90
32728;DHT22;55292;51.844;19.246;2024-02-26T10:26:54;12.80;99.90
32728;DHT22;55292;51.844;19.246;2024-02-26T10:31:57;12.80;97.60
32728;DHT22;55292;51.844;19.246;2024-02-26T10:37:01;12.80;99.20
32728;DHT22;55292;51.844;19.246;2024-02-26T10:42:05;12.90;99.00
32728;DHT22;55292;51.844;19.246;2024-02-26T10:47:14;13.00;97.50
32728;DHT22;55292;51.844;19.246;2024-02-26T10:52:19;13.60;95.40
32728;DHT22;55292;51.844;19.246;2024-02-26T10:57:22;13.10;96.80
32728;DHT22;55292;51.844;19.246;2024-02-26T11:02:27;14.10;96.40
32728;DHT22;55292;51.844;19.246;2024-02-26T11:07:30;13.30;94.30
32728;DHT22;55292;51.844;19.246;2024-02-26T11:12:35;13.30;94.70
32728;DHT22;55292;51.844;19.246;2024-02-26T11:17:41;13.40;95.50
32728;DHT22;55292;51.844;19.246;2024-02-26T11:22:45;13.40;94.40
32728;DHT22;55292;51.844;19.246;2024-02-26T11:27:55;13.40;93.70
32728;DHT22;55292;51.844;19.246;2024-02-26T11:33:03;13.40;95.20
32728;DHT22;55292;51.844;19.246;2024-02-26T11:38:07;13.40;92.00
32728;DHT22;55292;51.844;19.246;2024-02-26T11:43:10;13.50;94.70
32728;DHT22;55292;51.844;19.246;2024-02-26T11:48:13;13.60;94.80
32728;DHT22;55292;51.844;19.246;2024-02-26T11:53:26;13.90;94.70
32728;DHT22;55292;51.844;19.246;2024-02-26T11:58:31;13.50;94.60
32728;DHT22;55292;51.844;19.246;2024-02-26T12:03:35;13.80;95.20
32728;DHT22;55292;51.844;19.246;2024-02-26T12:08:39;13.60;94.00
32728;DHT22;55292;51.844;19.246;2024-02-26T12:13:41;13.70;94.80
32728;DHT22;55292;51.844;19.246;2024-02-26T12:18:44;13.80;93.40
32728;DHT22;55292;51.844;19.246;2024-02-26T12:23:48;15.10;95.80
32728;DHT22;55292;51.844;19.246;2024-02-26T12:28:51;13.80;93.40
32728;DHT22;55292;51.844;19.246;2024-02-26T12:33:55;14.10;96.40
32728;DHT22;55292;51.844;19.246;2024-02-26T12:38:58;13.80;96.10
32728;DHT22;55292;51.844;19.246;2024-02-26T12:44:01;13.90;95.40
32728;DHT22;55292;51.844;19.246;2024-02-26T12:49:04;13.90;94.30
32728;DHT22;55292;51.844;19.246;2024-02-26T12:54:07;14.00;95.20
32728;DHT22;55292;51.844;19.246;2024-02-26T12:59:10;14.40;95.60
32728;DHT22;55292;51.844;19.246;2024-02-26T13:04:14;13.90;94.90
32728;DHT22;55292;51.844;19.246;2024-02-26T13:09:17;14.00;95.10
32728;DHT22;55292;51.844;19.246;2024-02-26T13:14:21;14.00;94.90
32728;DHT22;55292;51.844;19.246;2024-02-26T13:19:24;14.20;96.30
32728;DHT22;55292;51.844;19.246;2024-02-26T13:24:27;17.40;95.30
32728;DHT22;55292;51.844;19.246;2024-02-26T13:29:30;14.00;94.80
32728;DHT22;55292;51.844;19.246;2024-02-26T13:34:33;13.90;93.00
32728;DHT22;55292;51.844;19.246;2024-02-26T13:39:38;13.70;91.20
32728;DHT22;55292;51.844;19.246;2024-02-26T13:44:44;13.60;94.10
32728;DHT22;55292;51.844;19.246;2024-02-26T13:49:46;13.60;93.90
32728;DHT22;55292;51.844;19.246;2024-02-26T13:54:49;13.60;94.10
32728;DHT22;55292;51.844;19.246;2024-02-26T13:59:52;13.50;92.40
32728;DHT22;55292;51.844;19.246;2024-02-26T14:04:55;14.20;91.50
32728;DHT22;55292;51.844;19.246;2024-02-26T14:10:00;13.90;92.20
32728;DHT22;55292;51.844;19.246;2024-02-26T14:15:04;13.50;92.20
32728;DHT22;55292;51.844;19.246;2024-02-26T14:20:08;13.50;92.60
32728;DHT22;55292;51.844;19.246;2024-02-26T14:25:19;13.60;93.60
32728;DHT22;55292;51.844;19.246;2024-02-26T14:30:22;13.70;93.70
32728;DHT22;55292;51.844;19.246;2024-02-26T14:35:25;14.40;93.20
32728;DHT22;55292;51.844;19.246;2024-02-26T14:40:28;13.40;93.60
32728;DHT22;55292;51.844;19.246;2024-02-26T14:45:32;14.00;94.70
32728;DHT22;55292;51.844;19.246;2024-02-26T14:50:36;13.20;98.80
32728;DHT22;55292;51.844;19.246;2024-02-26T14:55:38;12.90;99.90
32728;DHT22;55292;51.844;19.246;2024-02-26T15:00:43;14.00;99.90
32728;DHT22;55292;51.844;19.246;2024-02-26T15:05:46;12.60;99.90
32728;DHT22;55292;51.844;19.246;2024-02-26T15:10:49;12.90;99.90
32728;DHT22;55292;51.844;19.246;2024-02-26T15:15:52;13.40;99.90
32728;DHT22;55292;51.844;19.246;2024-02-26T15:20:54;13.00;99.90
32728;DHT22;55292;51.844;19.246;2024-02-26T15:25:57;12.70;99.90
32728;DHT22;55292;51.844;19.246;2024-02-26T15:31:00;13.90;99.90
32728;DHT22;55292;51.844;19.246;2024-02-26T15:36:03;12.00;99.90
32728;DHT22;55292;51.844;19.246;2024-02-26T15:41:13;11.80;99.90
32728;DHT22;55292;51.844;19.246;2024-02-26T15:46:16;11.70;99.90
32728;DHT22;55292;51.844;19.246;2024-02-26T15:51:21;11.60;99.90
32728;DHT22;55292;51.844;19.246;2024-02-26T15:56:25;12.50;99.90
32728;DHT22;55292;51.844;19.246;2024-02-26T16:01:28;15.20;99.90
32728;DHT22;55292;51.844;19.246;2024-02-26T16:06:47;11.50;99.90
32728;DHT22;55292;51.844;19.246;2024-02-26T16:11:51;11.00;99.90
32728;DHT22;55292;51.844;19.246;2024-02-26T16:17:10;11.00;99.90
32728;DHT22;55292;51.844;19.246;2024-02-26T16:22:15;11.10;99.90
32728;DHT22;55292;51.844;19.246;2024-02-26T16:27:17;11.40;99.90
32728;DHT22;55292;51.844;19.246;2024-02-26T16:32:21;11.10;99.90
32728;DHT22;55292;51.844;19.246;2024-02-26T16:37:25;12.80;99.90
32728;DHT22;55292;51.844;19.246;2024-02-26T16:42:28;10.90;99.90
32728;DHT22;55292;51.844;19.246;2024-02-26T16:47:32;10.90;99.90
32728;DHT22;55292;51.844;19.246;2024-02-26T16:52:35;10.80;99.90
32728;DHT22;55292;51.844;19.246;2024-02-26T16:57:38;10.80;99.90
32728;DHT22;55292;51.844;19.246;2024-02-26T17:02:43;10.70;99.90
32728;DHT22;55292;51.844;19.246;2024-02-26T17:07:48;11.40;99.90
32728;DHT22;55292;51.844;19.246;2024-02-26T17:12:51;10.60;99.90
32728;DHT22;55292;51.844;19.246;2024-02-26T17:17:55;10.40;99.90
32728;DHT22;55292;51.844;19.246;2024-02-26T17:22:58;10.30;99.90
32728;DHT22;55292;51.844;19.246;2024-02-26T17:28:01;10.30;99.90
32728;DHT22;55292;51.844;19.246;2024-02-26T17:33:04;10.30;99.90
32728;DHT22;55292;51.844;19.246;2024-02-26T17:38:07;10.30;99.90
32728;DHT22;55292;51.844;19.246;2024-02-26T17:43:10;10.20;99.90
32728;DHT22;55292;51.844;19.246;2024-02-26T17:48:14;10.10;99.90
32728;DHT22;55292;51.844;19.246;2024-02-26T17:53:17;10.30;99.90
32728;DHT22;55292;51.844;19.246;2024-02-26T17:58:21;10.30;99.90
32728;DHT22;55292;51.844;19.246;2024-02-26T18:08:28;10.30;99.90
32728;DHT22;55292;51.844;19.246;2024-02-26T18:13:35;10.20;99.90
32728;DHT22;55292;51.844;19.246;2024-02-26T18:18:43;10.20;99.90
32728;DHT22;55292;51.844;19.246;2024-02-26T18:23:50;10.00;99.90
32728;DHT22;55292;51.844;19.246;2024-02-26T18:28:53;10.40;99.90
32728;DHT22;55292;51.844;19.246;2024-02-26T18:33:56;10.20;99.90
32728;DHT22;55292;51.844;19.246;2024-02-26T18:38:59;10.90;99.90
32728;DHT22;55292;51.844;19.246;2024-02-26T18:44:04;9.80;99.90
32728;DHT22;55292;51.844;19.246;2024-02-26T18:49:07;9.80;99.90
32728;DHT22;55292;51.844;19.246;2024-02-26T18:54:09;10.00;99.90
32728;DHT22;55292;51.844;19.246;2024-02-26T18:59:12;10.00;99.90
32728;DHT22;55292;51.844;19.246;2024-02-26T19:04:17;10.30;99.90
32728;DHT22;55292;51.844;19.246;2024-02-26T19:09:21;10.30;99.90
32728;DHT22;55292;51.844;19.246;2024-02-26T19:14:27;10.40;99.90
32728;DHT22;55292;51.844;19.246;2024-02-26T19:19:31;10.40;99.90
32728;DHT22;55292;51.844;19.246;2024-02-26T19:24:33;11.90;99.90
32728;DHT22;55292;51.844;19.246;2024-02-26T19:29:37;10.70;99.90
32728;DHT22;55292;51.844;19.246;2024-02-26T19:34:40;9.90;99.90
32728;DHT22;55292;51.844;19.246;2024-02-26T19:39:48;10.40;99.90
32728;DHT22;55292;51.844;19.246;2024-02-26T19:44:52;9.40;99.90
32728;DHT22;55292;51.844;19.246;2024-02-26T19:49:56;9.40;99.90
32728;DHT22;55292;51.844;19.246;2024-02-26T19:55:02;9.40;99.90
32728;DHT22;55292;51.844;19.246;2024-02-26T20:00:06;9.40;99.90
32728;DHT22;55292;51.844;19.246;2024-02-26T20:05:16;9.30;99.90
32728;DHT22;55292;51.844;19.246;2024-02-26T20:10:19;9.70;99.90
32728;DHT22;55292;51.844;19.246;2024-02-26T20:15:22;9.10;99.90
32728;DHT22;55292;51.844;19.246;2024-02-26T20:20:25;9.00;99.90
32728;DHT22;55292;51.844;19.246;2024-02-26T20:25:33;9.00;99.90
32728;DHT22;55292;51.844;19.246;2024-02-26T20:30:37;9.50;99.90
32728;DHT22;55292;51.844;19.246;2024-02-26T20:35:41;8.90;99.90
32728;DHT22;55292;51.844;19.246;2024-02-26T20:40:44;10.20;99.90
32728;DHT22;55292;51.844;19.246;2024-02-26T20:45:49;9.10;99.90
32728;DHT22;55292;51.844;19.246;2024-02-26T20:50:53;9.20;99.90
32728;DHT22;55292;51.844;19.246;2024-02-26T20:55:57;9.30;99.90
32728;DHT22;55292;51.844;19.246;2024-02-26T21:01:00;10.20;99.90
32728;DHT22;55292;51.844;19.246;2024-02-26T21:06:03;9.20;99.90
32728;DHT22;55292;51.844;19.246;2024-02-26T21:11:07;9.00;99.90
32728;DHT22;55292;51.844;19.246;2024-02-26T21:16:10;9.00;99.90
32728;DHT22;55292;51.844;19.246;2024-02-26T21:21:14;8.80;99.90
32728;DHT22;55292;51.844;19.246;2024-02-26T21:26:18;8.40;99.90
32728;DHT22;55292;51.844;19.246;2024-02-26T21:31:21;8.50;99.90
32728;DHT22;55292;51.844;19.246;2024-02-26T21:36:24;9.10;99.90
32728;DHT22;55292;51.844;19.246;2024-02-26T21:41:27;7.90;99.90
32728;DHT22;55292;51.844;19.246;2024-02-26T21:46:31;7.60;99.90
32728;DHT22;55292;51.844;19.246;2024-02-26T21:51:33;7.60;99.90
32728;DHT22;55292;51.844;19.246;2024-02-26T21:56:37;7.10;99.90
32728;DHT22;55292;51.844;19.246;2024-02-26T22:01:40;7.10;99.90
32728;DHT22;55292;51.844;19.246;2024-02-26T22:06:43;7.10;99.90
32728;DHT22;55292;51.844;19.246;2024-02-26T22:16:50;7.10;99.90
32728;DHT22;55292;51.844;19.246;2024-02-26T22:21:53;7.00;99.90
32728;DHT22;55292;51.844;19.246;2024-02-26T22:31:59;6.80;99.90
32728;DHT22;55292;51.844;19.246;2024-02-26T22:37:04;6.80;99.90
32728;DHT22;55292;51.844;19.246;2024-02-26T22:42:07;6.60;99.90
32728;DHT22;55292;51.844;19.246;2024-02-26T22:47:10;8.30;99.90
32728;DHT22;55292;51.844;19.246;2024-02-26T22:52:12;8.60;99.90
32728;DHT22;55292;51.844;19.246;2024-02-26T22:57:15;9.10;99.90
32728;DHT22;55292;51.844;19.246;2024-02-26T23:02:18;6.10;99.90
32728;DHT22;55292;51.844;19.246;2024-02-26T23:07:21;6.20;99.90
32728;DHT22;55292;51.844;19.246;2024-02-26T23:12:24;6.20;99.90
32728;DHT22;55292;51.844;19.246;2024-02-26T23:17:27;6.40;99.90
32728;DHT22;55292;51.844;19.246;2024-02-26T23:22:32;6.30;99.90
32728;DHT22;55292;51.844;19.246;2024-02-26T23:27:35;6.10;99.90
32728;DHT22;55292;51.844;19.246;2024-02-26T23:32:40;8.50;99.90
32728;DHT22;55292;51.844;19.246;2024-02-26T23:37:43;5.90;99.90
32728;DHT22;55292;51.844;19.246;2024-02-26T23:42:45;5.90;99.90
32728;DHT22;55292;51.844;19.246;2024-02-26T23:47:48;5.80;99.90
32728;DHT22;55292;51.844;19.246;2024-02-26T23:52:51;6.40;99.90
32728;DHT22;55292;51.844;19.246;2024-02-26T23:57:54;5.50;99.90
